createdAt,value
2022-08-18T00:01:16.849Z,5.43
2022-08-18T00:03:55.569Z,5.25
2022-08-18T00:06:30.060Z,5.15
2022-08-18T00:08:59.990Z,5.05
2022-08-18T00:11:28.791Z,5.45
2022-08-18T00:14:13.813Z,5.65
2022-08-18T00:16:51.919Z,5.80
2022-08-18T00:19:20.112Z,6.10
2022-08-18T00:22:15.170Z,5.90
2022-08-18T00:24:47.458Z,5.95
2022-08-18T00:27:23.938Z,6.05
2022-08-18T00:29:59.415Z,6.00
2022-08-18T00:32:30.139Z,6.03
2022-08-18T00:34:58.506Z,5.93
2022-08-18T00:37:28.084Z,6.45
2022-08-18T00:39:56.146Z,6.15
2022-08-18T00:42:27.353Z,6.50
2022-08-18T00:45:02.476Z,6.20
2022-08-18T00:47:33.123Z,5.90
2022-08-18T00:50:15.298Z,6.00
2022-08-18T00:52:49.040Z,6.15
2022-08-18T00:55:19.523Z,6.18
2022-08-18T00:57:52.062Z,6.43
2022-08-18T01:00:20.497Z,6.28
2022-08-18T01:02:55.559Z,6.00
2022-08-18T01:05:30.433Z,6.65
2022-08-18T01:07:59.990Z,6.53
2022-08-18T01:10:28.250Z,6.80
2022-08-18T01:12:58.506Z,6.57
2022-08-18T01:15:30.139Z,7.10
2022-08-18T01:18:17.854Z,6.60
2022-08-18T01:21:13.993Z,7.22
2022-08-18T01:23:43.747Z,7.10
2022-08-18T01:26:11.546Z,6.95
2022-08-18T01:28:42.320Z,6.55
2022-08-18T01:31:12.133Z,7.53
2022-08-18T01:33:44.892Z,7.00
2022-08-18T01:36:18.017Z,7.67
2022-08-18T01:38:50.277Z,7.70
2022-08-18T01:41:26.908Z,7.07
2022-08-18T01:43:56.513Z,7.22
2022-08-18T01:46:24.687Z,7.40
2022-08-18T01:48:53.692Z,7.32
2022-08-18T01:51:39.615Z,7.90
2022-08-18T01:54:14.067Z,7.40
2022-08-18T01:56:43.386Z,8.07
2022-08-18T01:59:14.823Z,7.57
2022-08-18T02:01:48.263Z,7.97
2022-08-18T02:04:37.063Z,8.07
2022-08-18T02:07:09.129Z,8.15
2022-08-18T02:09:41.094Z,8.18
2022-08-18T02:12:09.570Z,8.60
2022-08-18T02:14:38.592Z,8.10
2022-08-18T02:17:08.957Z,8.10
2022-08-18T02:19:39.489Z,8.15
2022-08-18T02:22:09.358Z,9.23
2022-08-18T02:24:39.368Z,7.82
2022-08-18T02:27:08.305Z,8.68
2022-08-18T02:29:37.366Z,8.75
2022-08-18T02:32:06.944Z,8.32
2022-08-18T02:34:35.318Z,8.52
2022-08-18T02:37:04.441Z,8.60
2022-08-18T02:39:35.949Z,8.07
2022-08-18T02:42:05.896Z,8.55
2022-08-18T02:44:34.112Z,8.23
2022-08-18T02:47:02.963Z,9.05
2022-08-18T02:49:31.108Z,8.52
2022-08-18T02:51:59.622Z,8.85
2022-08-18T02:54:27.749Z,8.77
2022-08-18T02:56:57.172Z,9.55
2022-08-18T02:59:28.475Z,8.90
2022-08-18T03:02:00.346Z,9.52
2022-08-18T03:04:31.427Z,9.48
2022-08-18T03:07:01.455Z,9.45
2022-08-18T03:09:30.535Z,9.35
2022-08-18T03:11:59.265Z,8.18
2022-08-18T03:14:29.459Z,8.77
2022-08-18T03:16:57.825Z,9.07
2022-08-18T03:19:28.708Z,9.20
2022-08-18T03:21:59.331Z,9.70
2022-08-18T03:27:01.869Z,9.63
2022-08-18T03:29:32.915Z,10.20
2022-08-18T03:32:02.272Z,9.68
2022-08-18T03:34:32.334Z,10.65
2022-08-18T03:37:00.928Z,9.60
2022-08-18T03:39:29.772Z,10.10
2022-08-18T03:42:01.673Z,9.65
2022-08-18T03:44:33.876Z,9.82
2022-08-18T03:47:03.151Z,10.15
2022-08-18T03:49:32.416Z,10.10
2022-08-18T03:52:01.476Z,10.20
2022-08-18T03:54:29.875Z,10.45
2022-08-18T03:56:58.555Z,11.25
2022-08-18T03:59:27.736Z,11.00
2022-08-18T04:01:57.347Z,11.07
2022-08-18T04:04:28.328Z,10.93
2022-08-18T04:07:00.625Z,10.55
2022-08-18T04:09:31.954Z,10.98
2022-08-18T04:12:06.021Z,10.63
2022-08-18T04:14:35.040Z,10.82
2022-08-18T04:17:04.681Z,10.85
2022-08-18T04:19:37.475Z,10.00
2022-08-18T04:22:06.831Z,10.13
2022-08-18T04:24:35.854Z,10.02
2022-08-18T04:27:05.902Z,9.68
2022-08-18T04:29:34.138Z,10.85
2022-08-18T04:32:05.152Z,11.23
2022-08-18T04:34:34.127Z,10.20
2022-08-18T04:37:02.953Z,10.00
2022-08-18T04:39:31.627Z,10.07
2022-08-18T04:42:01.638Z,10.05
2022-08-18T04:44:29.762Z,10.55
2022-08-18T04:46:57.985Z,10.73
2022-08-18T04:49:27.948Z,10.93
2022-08-18T04:52:27.062Z,10.27
2022-08-18T04:55:03.141Z,10.05
2022-08-18T04:57:34.746Z,10.90
2022-08-18T05:00:05.616Z,10.50
2022-08-18T05:02:33.921Z,10.48
2022-08-18T05:05:04.237Z,10.77
2022-08-18T05:07:32.758Z,10.55
2022-08-18T05:10:00.854Z,10.75
2022-08-18T05:12:29.564Z,10.50
2022-08-18T05:14:57.979Z,11.35
2022-08-18T05:17:29.131Z,11.02
2022-08-18T05:20:00.764Z,10.90
2022-08-18T05:22:32.085Z,10.60
2022-08-18T05:25:01.151Z,10.57
2022-08-18T05:27:34.059Z,10.90
2022-08-18T05:30:02.494Z,10.63
2022-08-18T05:32:48.198Z,11.18
2022-08-18T05:35:23.269Z,11.25
2022-08-18T05:38:22.541Z,11.20
2022-08-18T05:41:07.567Z,11.30
2022-08-18T05:43:51.982Z,10.70
2022-08-18T05:46:25.908Z,10.98
2022-08-18T05:48:54.060Z,10.93
2022-08-18T05:51:34.229Z,11.00
2022-08-18T05:54:25.515Z,13.18
2022-08-18T05:56:57.265Z,11.80
2022-08-18T05:59:28.665Z,12.85
2022-08-18T06:02:07.958Z,13.35
2022-08-18T06:04:44.026Z,11.43
2022-08-18T06:07:17.182Z,11.38
2022-08-18T06:09:52.604Z,10.80
2022-08-18T06:12:30.026Z,17.67
2022-08-18T06:15:06.643Z,12.43
2022-08-18T06:17:58.980Z,16.00
2022-08-18T06:20:33.771Z,13.73
2022-08-18T06:23:18.734Z,11.57
2022-08-18T06:26:02.977Z,11.70
2022-08-18T06:28:42.038Z,14.40
2022-08-18T06:31:17.742Z,13.60
2022-08-18T06:33:58.017Z,13.32
2022-08-18T06:36:38.605Z,12.32
2022-08-18T06:39:18.517Z,11.55
2022-08-18T06:41:53.727Z,12.63
2022-08-18T06:44:31.520Z,12.30
2022-08-18T06:47:06.490Z,10.57
2022-08-18T06:49:40.913Z,10.05
2022-08-18T06:52:29.185Z,10.90
2022-08-18T06:54:59.765Z,10.23
2022-08-18T06:57:34.622Z,10.23
2022-08-18T07:00:10.058Z,9.55
2022-08-18T07:02:50.920Z,9.80
2022-08-18T07:05:25.249Z,8.82
2022-08-18T07:08:14.541Z,8.60
2022-08-18T07:10:45.119Z,8.73
2022-08-18T07:13:21.592Z,9.20
2022-08-18T07:15:50.914Z,9.27
2022-08-18T07:18:25.431Z,8.60
2022-08-18T07:20:56.018Z,8.23
2022-08-18T07:23:30.527Z,8.23
2022-08-18T07:26:09.732Z,11.68
2022-08-18T07:28:41.922Z,13.73
2022-08-18T07:31:17.297Z,14.80
2022-08-18T07:33:52.367Z,9.57
2022-08-18T07:36:24.418Z,8.45
2022-08-18T07:38:58.148Z,8.43
2022-08-18T07:41:31.619Z,8.70
2022-08-18T07:44:13.804Z,8.20
2022-08-18T07:46:51.680Z,8.27
2022-08-18T07:49:22.753Z,8.43
2022-08-18T07:51:58.037Z,7.82
2022-08-18T07:54:50.969Z,8.65
2022-08-18T07:57:30.793Z,8.43
2022-08-18T08:00:20.607Z,8.48
2022-08-18T08:03:01.916Z,8.20
2022-08-18T08:05:43.611Z,8.18
2022-08-18T08:08:25.406Z,12.75
2022-08-18T08:11:06.197Z,12.52
2022-08-18T08:13:55.095Z,16.25
2022-08-18T08:16:36.526Z,8.85
2022-08-18T08:19:16.646Z,8.55
2022-08-18T08:21:53.521Z,8.55
2022-08-18T08:24:33.812Z,7.93
2022-08-18T08:27:10.147Z,11.13
2022-08-18T08:29:46.205Z,13.68
2022-08-18T08:32:22.199Z,9.70
2022-08-18T08:34:55.580Z,8.10
2022-08-18T08:37:41.854Z,7.80
2022-08-18T08:40:17.209Z,8.10
2022-08-18T08:42:52.615Z,7.85
2022-08-18T08:45:25.001Z,7.63
2022-08-18T08:48:09.009Z,7.77
2022-08-18T08:50:46.503Z,7.15
2022-08-18T08:53:24.625Z,7.82
2022-08-18T08:56:02.201Z,7.40
2022-08-18T08:58:35.958Z,8.32
2022-08-18T09:01:05.061Z,7.63
2022-08-18T09:03:44.362Z,10.18
2022-08-18T09:06:28.166Z,9.85
2022-08-18T09:09:34.596Z,7.32
2022-08-18T09:12:24.838Z,8.00
2022-08-18T09:15:19.319Z,7.30
2022-08-18T09:18:22.326Z,7.80
2022-08-18T09:20:59.865Z,7.63
2022-08-18T09:23:35.144Z,7.40
2022-08-18T09:26:25.335Z,7.68
2022-08-18T09:28:58.380Z,8.98
2022-08-18T09:34:33.466Z,8.15
2022-08-18T09:37:12.866Z,7.13
2022-08-18T09:40:11.041Z,8.18
2022-08-18T09:42:49.888Z,7.75
2022-08-18T09:45:57.614Z,7.07
2022-08-18T09:48:32.708Z,6.30
2022-08-18T09:51:24.742Z,6.75
2022-08-18T09:54:21.136Z,6.60
2022-08-18T09:57:19.241Z,6.63
2022-08-18T10:00:12.736Z,6.05
2022-08-18T10:03:26.072Z,6.40
2022-08-18T10:06:06.437Z,7.13
2022-08-18T10:09:37.967Z,6.80
2022-08-18T10:12:42.439Z,8.85
2022-08-18T10:15:39.210Z,10.60
2022-08-18T10:18:43.923Z,10.30
2022-08-18T10:21:21.070Z,6.30
2022-08-18T10:24:08.535Z,6.30
2022-08-18T10:30:01.714Z,5.07
2022-08-18T10:32:54.749Z,5.20
2022-08-18T10:36:07.333Z,4.55
2022-08-18T10:38:48.904Z,5.15
2022-08-18T10:41:31.491Z,4.93
2022-08-18T10:44:20.899Z,5.20
2022-08-18T10:46:53.310Z,5.40
2022-08-18T10:49:26.406Z,5.32
2022-08-18T10:52:47.222Z,5.07
2022-08-18T10:58:47.828Z,5.20
2022-08-18T11:01:39.370Z,5.03
2022-08-18T11:07:15.847Z,4.70
2022-08-18T11:09:57.271Z,4.75
2022-08-18T11:12:51.730Z,4.93
2022-08-18T11:15:25.662Z,4.80
2022-08-18T11:18:06.349Z,4.55
2022-08-18T11:20:39.581Z,4.40
2022-08-18T11:23:15.737Z,4.60
2022-08-18T11:25:44.996Z,4.68
2022-08-18T11:28:18.487Z,4.68
2022-08-18T11:30:49.286Z,4.60
2022-08-18T11:33:23.010Z,4.70
2022-08-18T11:35:57.858Z,4.55
2022-08-18T11:38:29.431Z,4.80
2022-08-18T11:41:14.296Z,4.40
2022-08-18T11:43:47.672Z,3.85
2022-08-18T11:46:29.788Z,3.55
2022-08-18T11:49:04.470Z,3.20
2022-08-18T11:51:35.048Z,3.38
2022-08-18T11:54:21.788Z,4.13
2022-08-18T11:56:51.716Z,3.90
2022-08-18T11:59:53.818Z,3.90
2022-08-18T12:02:22.918Z,3.75
2022-08-18T12:04:57.560Z,3.90
2022-08-18T12:07:30.990Z,3.45
2022-08-18T12:10:21.184Z,3.40
2022-08-18T12:12:57.631Z,3.50
2022-08-18T12:18:28.977Z,3.80
2022-08-18T12:21:03.270Z,4.40
2022-08-18T12:23:39.174Z,3.58
2022-08-18T12:29:08.709Z,3.17
2022-08-18T12:31:42.781Z,3.50
2022-08-18T12:34:18.080Z,3.38
2022-08-18T12:36:58.489Z,3.40
2022-08-18T12:39:26.828Z,3.42
2022-08-18T12:41:54.994Z,3.20
2022-08-18T12:44:23.307Z,3.42
2022-08-18T12:46:56.126Z,3.65
2022-08-18T12:49:26.564Z,4.32
2022-08-18T12:51:58.435Z,3.50
2022-08-18T12:54:26.813Z,3.60
2022-08-18T12:56:57.698Z,3.50
2022-08-18T12:59:26.410Z,3.55
2022-08-18T13:02:01.603Z,3.67
2022-08-18T13:04:29.865Z,3.80
2022-08-18T13:07:05.824Z,3.67
2022-08-18T13:09:52.530Z,3.30
2022-08-18T13:12:21.887Z,3.38
2022-08-18T13:14:51.302Z,3.20
2022-08-18T13:17:32.495Z,3.65
2022-08-18T13:20:03.863Z,3.50
2022-08-18T13:22:34.023Z,5.10
2022-08-18T13:25:04.028Z,3.80
2022-08-18T13:27:35.822Z,3.75
2022-08-18T13:30:16.614Z,3.97
2022-08-18T13:33:00.659Z,3.73
2022-08-18T13:35:38.396Z,4.15
2022-08-18T13:38:20.833Z,3.83
2022-08-18T13:40:51.038Z,3.90
2022-08-18T13:43:23.579Z,4.35
2022-08-18T13:45:52.962Z,3.88
2022-08-18T13:48:26.231Z,3.90
2022-08-18T13:50:56.773Z,3.50
2022-08-18T13:53:28.729Z,3.90
2022-08-18T13:55:59.351Z,3.50
2022-08-18T13:58:30.504Z,5.07
2022-08-18T14:01:22.537Z,7.70
2022-08-18T14:03:50.149Z,4.70
2022-08-18T14:06:22.609Z,3.40
2022-08-18T14:08:54.913Z,4.05
2022-08-18T14:11:32.862Z,4.03
2022-08-18T14:14:02.513Z,4.00
2022-08-18T14:16:31.249Z,3.90
2022-08-18T14:19:22.920Z,3.47
2022-08-18T14:22:11.600Z,3.40
2022-08-18T14:25:02.855Z,3.28
2022-08-18T14:27:35.101Z,3.42
2022-08-18T14:30:06.828Z,3.38
2022-08-18T14:32:36.362Z,3.63
2022-08-18T14:36:04.143Z,3.92
2022-08-18T14:37:56.256Z,3.78
2022-08-18T14:40:26.772Z,3.38
2022-08-18T14:42:55.739Z,3.30
2022-08-18T14:45:31.791Z,3.60
2022-08-18T14:48:07.537Z,3.05
2022-08-18T14:50:44.855Z,3.30
2022-08-18T14:53:20.218Z,3.03
2022-08-18T14:55:52.533Z,3.25
2022-08-18T14:58:25.315Z,2.85
2022-08-18T15:00:56.295Z,2.65
2022-08-18T15:03:31.203Z,2.40
2022-08-18T15:06:00.747Z,2.72
2022-08-18T15:08:35.817Z,3.00
2022-08-18T15:11:11.860Z,2.95
2022-08-18T15:13:45.103Z,2.60
2022-08-18T15:16:14.209Z,2.90
2022-08-18T15:18:42.631Z,2.70
2022-08-18T15:21:38.504Z,2.53
2022-08-18T15:24:25.911Z,2.70
2022-08-18T15:27:05.447Z,2.42
2022-08-18T15:29:36.950Z,3.20
2022-08-18T15:32:10.486Z,2.78
2022-08-18T15:34:46.050Z,3.00
2022-08-18T15:37:19.533Z,2.67
2022-08-18T15:39:55.438Z,3.08
2022-08-18T15:42:25.723Z,3.17
2022-08-18T15:44:55.546Z,3.70
2022-08-18T15:47:25.461Z,2.70
2022-08-18T15:49:57.282Z,2.38
2022-08-18T15:52:26.311Z,2.83
2022-08-18T15:54:58.333Z,2.95
2022-08-18T15:57:39.365Z,2.80
2022-08-18T16:00:12.070Z,2.80
2022-08-18T16:02:44.595Z,3.42
2022-08-18T16:05:17.186Z,2.75
2022-08-18T16:07:46.054Z,2.55
2022-08-18T16:10:15.416Z,2.40
2022-08-18T16:12:46.055Z,3.22
2022-08-18T16:15:19.846Z,2.50
2022-08-18T16:17:52.049Z,2.58
2022-08-18T16:20:21.313Z,2.70
2022-08-18T16:22:49.748Z,2.90
2022-08-18T16:25:18.509Z,2.55
2022-08-18T16:27:48.908Z,2.70
2022-08-18T16:30:19.689Z,2.22
2022-08-18T16:32:47.913Z,2.60
2022-08-18T16:35:18.733Z,2.40
2022-08-18T16:37:47.753Z,2.70
2022-08-18T16:40:16.299Z,2.88
2022-08-18T16:42:44.705Z,2.88
2022-08-18T16:45:14.971Z,2.72
2022-08-18T16:47:43.037Z,2.90
2022-08-18T16:50:14.486Z,3.20
2022-08-18T16:52:43.191Z,3.03
2022-08-18T16:55:13.614Z,3.15
2022-08-18T16:58:00.475Z,2.75
2022-08-18T17:00:54.623Z,3.40
2022-08-18T17:03:41.480Z,2.88
2022-08-18T17:06:12.196Z,3.42
2022-08-18T17:08:40.868Z,2.97
2022-08-18T17:11:13.964Z,3.28
2022-08-18T17:13:43.296Z,3.20
2022-08-18T17:16:13.694Z,2.78
2022-08-18T17:18:42.864Z,5.05
2022-08-18T17:21:13.237Z,4.10
2022-08-18T17:23:42.529Z,3.67
2022-08-18T17:26:18.530Z,4.20
2022-08-18T17:28:52.601Z,5.53
2022-08-18T17:31:24.646Z,4.60
2022-08-18T17:33:56.898Z,4.00
2022-08-18T17:36:34.874Z,4.05
2022-08-18T17:39:05.447Z,4.20
2022-08-18T17:41:56.121Z,4.47
2022-08-18T17:44:31.173Z,3.92
2022-08-18T17:47:03.969Z,4.50
2022-08-18T17:50:27.137Z,4.25
2022-08-18T17:53:05.325Z,4.13
2022-08-18T17:55:40.300Z,4.32
2022-08-18T17:58:16.149Z,4.15
2022-08-18T18:00:45.468Z,3.20
2022-08-18T18:03:15.118Z,3.67
2022-08-18T18:05:56.449Z,3.40
2022-08-18T18:08:55.036Z,3.50
2022-08-18T18:11:35.119Z,3.58
2022-08-18T18:14:29.215Z,3.78
2022-08-18T18:17:02.509Z,4.32
2022-08-18T18:19:33.485Z,4.88
2022-08-18T18:22:08.362Z,5.13
2022-08-18T18:24:39.456Z,4.47
2022-08-18T18:27:26.548Z,5.40
2022-08-18T18:29:58.081Z,5.65
2022-08-18T18:32:30.425Z,5.20
2022-08-18T18:35:14.141Z,5.50
2022-08-18T18:37:50.108Z,5.30
2022-08-18T18:40:35.019Z,6.10
2022-08-18T18:43:22.217Z,6.05
2022-08-18T18:46:18.362Z,5.25
2022-08-18T18:48:56.778Z,6.22
2022-08-18T18:51:33.537Z,5.65
2022-08-18T18:54:15.200Z,6.53
2022-08-18T18:56:52.888Z,6.75
2022-08-18T18:59:35.585Z,5.82
2022-08-18T19:02:34.160Z,6.00
2022-08-18T19:05:16.674Z,6.15
2022-08-18T19:07:57.990Z,6.07
2022-08-18T19:10:34.916Z,5.90
2022-08-18T19:13:32.416Z,6.32
2022-08-18T19:16:05.028Z,5.80
2022-08-18T19:22:02.652Z,5.45
2022-08-18T19:24:06.844Z,5.65
2022-08-18T19:26:41.279Z,5.28
2022-08-18T19:29:20.930Z,6.15
2022-08-18T19:31:53.716Z,5.60
2022-08-18T19:34:30.059Z,5.38
2022-08-18T19:37:05.735Z,5.30
2022-08-18T19:39:43.720Z,5.40
2022-08-18T19:42:19.552Z,5.35
2022-08-18T19:45:14.972Z,5.93
2022-08-18T19:47:50.110Z,5.43
2022-08-18T19:50:28.886Z,5.70
2022-08-18T19:53:21.980Z,5.47
2022-08-18T19:56:11.769Z,5.90
2022-08-18T19:59:18.676Z,5.70
2022-08-18T20:02:02.817Z,5.57
2022-08-18T20:04:46.990Z,5.80
2022-08-18T20:07:42.053Z,5.97
2022-08-18T20:10:44.230Z,5.88
2022-08-18T20:13:28.165Z,5.70
2022-08-18T20:16:14.116Z,6.40
2022-08-18T20:18:44.517Z,5.70
2022-08-18T20:21:41.714Z,6.50
2022-08-18T20:24:41.686Z,6.28
2022-08-18T20:27:23.894Z,6.00
2022-08-18T20:30:21.852Z,6.70
2022-08-18T20:33:14.411Z,6.28
2022-08-18T20:35:47.830Z,6.10
2022-08-18T20:38:29.199Z,6.22
2022-08-18T20:40:59.775Z,6.57
2022-08-18T20:43:32.231Z,6.30
2022-08-18T20:46:23.692Z,6.75
2022-08-18T20:49:10.198Z,6.80
2022-08-18T20:51:52.375Z,6.40
2022-08-18T20:54:34.619Z,6.20
2022-08-18T20:57:10.021Z,6.30
2022-08-18T20:59:45.382Z,6.22
2022-08-18T21:02:28.259Z,6.05
2022-08-18T21:05:00.235Z,6.40
2022-08-18T21:07:36.271Z,6.70
2022-08-18T21:10:13.799Z,6.30
2022-08-18T21:12:52.494Z,6.65
2022-08-18T21:15:24.409Z,6.30
2022-08-18T21:18:01.571Z,8.20
2022-08-18T21:20:31.470Z,6.70
2022-08-18T21:23:05.790Z,6.88
2022-08-18T21:25:34.511Z,6.10
2022-08-18T21:28:07.001Z,6.63
2022-08-18T21:30:35.451Z,7.00
2022-08-18T21:33:20.051Z,6.45
2022-08-18T21:35:48.359Z,7.30
2022-08-18T21:38:16.581Z,7.20
2022-08-18T21:40:49.276Z,6.70
2022-08-18T21:43:38.054Z,7.28
2022-08-18T21:46:06.301Z,7.03
2022-08-18T21:48:36.231Z,7.00
2022-08-18T21:51:06.472Z,7.22
2022-08-18T21:53:38.347Z,6.93
2022-08-18T21:56:06.766Z,6.50
2022-08-18T21:58:42.308Z,7.07
2022-08-18T22:01:24.818Z,7.47
2022-08-18T22:03:56.104Z,7.07
2022-08-18T22:06:31.481Z,7.05
2022-08-18T22:09:24.421Z,6.97
2022-08-18T22:12:46.011Z,7.33
2022-08-18T22:15:18.706Z,6.70
2022-08-18T22:17:57.902Z,7.22
2022-08-18T22:20:48.350Z,7.20
2022-08-18T22:23:44.411Z,7.65
2022-08-18T22:26:18.480Z,7.53
2022-08-18T22:29:03.862Z,7.60
2022-08-18T22:31:33.929Z,8.05
2022-08-18T22:34:05.179Z,7.65
2022-08-18T22:36:37.346Z,7.53
2022-08-18T22:39:09.596Z,8.13
2022-08-18T22:41:38.439Z,8.48
2022-08-18T22:44:08.651Z,7.85
2022-08-18T22:46:36.967Z,7.80
2022-08-18T22:49:05.478Z,8.10
2022-08-18T22:51:37.037Z,7.72
2022-08-18T22:54:08.246Z,7.65
2022-08-18T22:56:37.873Z,7.85
2022-08-18T22:59:15.612Z,8.27
2022-08-18T23:01:46.256Z,8.35
2022-08-18T23:04:16.351Z,8.10
2022-08-18T23:06:51.427Z,7.78
2022-08-18T23:09:21.935Z,8.40
2022-08-18T23:11:50.246Z,8.02
2022-08-18T23:14:20.116Z,8.85
2022-08-18T23:16:48.295Z,7.93
2022-08-18T23:19:18.017Z,7.88
2022-08-18T23:21:46.985Z,8.35
2022-08-18T23:24:16.914Z,8.07
2022-08-18T23:26:45.185Z,8.60
2022-08-18T23:29:14.425Z,8.18
2022-08-18T23:31:45.351Z,8.52
2022-08-18T23:34:17.402Z,7.80
2022-08-18T23:36:46.502Z,8.02
2022-08-18T23:39:15.091Z,8.43
2022-08-18T23:41:43.474Z,8.07
2022-08-18T23:44:14.921Z,8.40
2022-08-18T23:46:45.102Z,7.55
2022-08-18T23:49:15.069Z,8.32
2022-08-18T23:51:46.580Z,7.95
2022-08-18T23:54:18.076Z,7.90
2022-08-18T23:56:47.066Z,7.78
2022-08-18T23:59:17.219Z,9.93
